sensor_id;sensor_type;location;lat;lon;timestamp;P1;durP1;ratioP1;P2;durP2;ratioP2
4889;SDS011;2459;42.268;23.112;2023-02-22T00:00:48;37.33;;;15.17;;
4889;SDS011;2459;42.268;23.112;2023-02-22T00:03:17;33.73;;;14.60;;
4889;SDS011;2459;42.268;23.112;2023-02-22T00:05:49;30.60;;;12.67;;
4889;SDS011;2459;42.268;23.112;2023-02-22T00:08:18;36.87;;;15.60;;
4889;SDS011;2459;42.268;23.112;2023-02-22T00:10:46;30.03;;;12.50;;
4889;SDS011;2459;42.268;23.112;2023-02-22T00:13:15;33.93;;;12.97;;
4889;SDS011;2459;42.268;23.112;2023-02-22T00:15:42;29.93;;;10.10;;
4889;SDS011;2459;42.268;23.112;2023-02-22T00:18:10;45.63;;;11.80;;
4889;SDS011;2459;42.268;23.112;2023-02-22T00:20:37;28.73;;;13.57;;
4889;SDS011;2459;42.268;23.112;2023-02-22T00:23:04;29.17;;;11.37;;
4889;SDS011;2459;42.268;23.112;2023-02-22T00:25:32;30.90;;;11.07;;
4889;SDS011;2459;42.268;23.112;2023-02-22T00:28:00;27.90;;;10.87;;
4889;SDS011;2459;42.268;23.112;2023-02-22T00:30:29;38.80;;;12.37;;
4889;SDS011;2459;42.268;23.112;2023-02-22T00:32:56;29.90;;;11.23;;
4889;SDS011;2459;42.268;23.112;2023-02-22T00:35:23;28.80;;;12.13;;
4889;SDS011;2459;42.268;23.112;2023-02-22T00:37:50;35.37;;;11.70;;
4889;SDS011;2459;42.268;23.112;2023-02-22T00:40:18;35.53;;;12.60;;
4889;SDS011;2459;42.268;23.112;2023-02-22T00:42:44;21.10;;;12.13;;
4889;SDS011;2459;42.268;23.112;2023-02-22T00:45:14;32.70;;;13.37;;
4889;SDS011;2459;42.268;23.112;2023-02-22T00:47:41;42.47;;;17.57;;
4889;SDS011;2459;42.268;23.112;2023-02-22T00:50:07;27.53;;;13.17;;
4889;SDS011;2459;42.268;23.112;2023-02-22T00:52:34;32.80;;;11.47;;
4889;SDS011;2459;42.268;23.112;2023-02-22T00:55:01;32.93;;;11.53;;
4889;SDS011;2459;42.268;23.112;2023-02-22T00:57:27;33.07;;;11.27;;
4889;SDS011;2459;42.268;23.112;2023-02-22T00:59:54;30.00;;;13.43;;
4889;SDS011;2459;42.268;23.112;2023-02-22T01:02:22;34.00;;;13.50;;
4889;SDS011;2459;42.268;23.112;2023-02-22T01:04:48;31.60;;;12.63;;
4889;SDS011;2459;42.268;23.112;2023-02-22T01:07:14;37.73;;;12.87;;
4889;SDS011;2459;42.268;23.112;2023-02-22T01:09:41;36.83;;;11.20;;
4889;SDS011;2459;42.268;23.112;2023-02-22T01:12:08;25.50;;;13.57;;
4889;SDS011;2459;42.268;23.112;2023-02-22T01:14:34;27.80;;;13.03;;
4889;SDS011;2459;42.268;23.112;2023-02-22T01:17:01;28.50;;;12.20;;
4889;SDS011;2459;42.268;23.112;2023-02-22T01:19:29;33.13;;;11.97;;
4889;SDS011;2459;42.268;23.112;2023-02-22T01:21:56;32.90;;;10.97;;
4889;SDS011;2459;42.268;23.112;2023-02-22T01:24:22;35.57;;;13.80;;
4889;SDS011;2459;42.268;23.112;2023-02-22T01:26:50;34.33;;;14.80;;
4889;SDS011;2459;42.268;23.112;2023-02-22T01:29:17;27.10;;;13.40;;
4889;SDS011;2459;42.268;23.112;2023-02-22T01:31:49;29.87;;;12.43;;
4889;SDS011;2459;42.268;23.112;2023-02-22T01:34:16;30.20;;;12.40;;
4889;SDS011;2459;42.268;23.112;2023-02-22T01:36:43;34.77;;;14.30;;
4889;SDS011;2459;42.268;23.112;2023-02-22T01:39:10;42.73;;;13.90;;
4889;SDS011;2459;42.268;23.112;2023-02-22T01:41:36;29.37;;;13.00;;
4889;SDS011;2459;42.268;23.112;2023-02-22T01:44:16;31.90;;;15.90;;
4889;SDS011;2459;42.268;23.112;2023-02-22T01:46:42;26.23;;;11.40;;
4889;SDS011;2459;42.268;23.112;2023-02-22T01:49:09;25.23;;;11.40;;
4889;SDS011;2459;42.268;23.112;2023-02-22T01:51:37;27.27;;;12.30;;
4889;SDS011;2459;42.268;23.112;2023-02-22T01:54:07;31.90;;;11.00;;
4889;SDS011;2459;42.268;23.112;2023-02-22T01:56:35;36.97;;;12.70;;
4889;SDS011;2459;42.268;23.112;2023-02-22T01:59:05;48.33;;;17.13;;
4889;SDS011;2459;42.268;23.112;2023-02-22T02:01:33;28.27;;;12.40;;
4889;SDS011;2459;42.268;23.112;2023-02-22T02:04:00;51.43;;;19.73;;
4889;SDS011;2459;42.268;23.112;2023-02-22T02:06:30;38.23;;;15.77;;
4889;SDS011;2459;42.268;23.112;2023-02-22T02:08:58;37.53;;;14.57;;
4889;SDS011;2459;42.268;23.112;2023-02-22T02:11:28;27.10;;;12.17;;
4889;SDS011;2459;42.268;23.112;2023-02-22T02:13:55;38.47;;;11.50;;
4889;SDS011;2459;42.268;23.112;2023-02-22T02:16:22;35.37;;;12.90;;
4889;SDS011;2459;42.268;23.112;2023-02-22T02:18:49;37.70;;;13.80;;
4889;SDS011;2459;42.268;23.112;2023-02-22T02:24:09;43.63;;;15.10;;
4889;SDS011;2459;42.268;23.112;2023-02-22T02:26:46;40.07;;;18.03;;
4889;SDS011;2459;42.268;23.112;2023-02-22T02:29:23;26.30;;;13.10;;
4889;SDS011;2459;42.268;23.112;2023-02-22T02:31:59;37.53;;;14.87;;
4889;SDS011;2459;42.268;23.112;2023-02-22T02:34:29;29.20;;;12.37;;
4889;SDS011;2459;42.268;23.112;2023-02-22T02:36:59;30.63;;;10.80;;
4889;SDS011;2459;42.268;23.112;2023-02-22T02:39:28;30.23;;;10.17;;
4889;SDS011;2459;42.268;23.112;2023-02-22T02:41:56;23.97;;;11.10;;
4889;SDS011;2459;42.268;23.112;2023-02-22T02:44:25;29.67;;;13.20;;
4889;SDS011;2459;42.268;23.112;2023-02-22T02:46:54;35.77;;;13.50;;
4889;SDS011;2459;42.268;23.112;2023-02-22T02:49:24;43.13;;;11.57;;
4889;SDS011;2459;42.268;23.112;2023-02-22T02:51:52;27.37;;;13.10;;
4889;SDS011;2459;42.268;23.112;2023-02-22T02:54:20;58.10;;;21.27;;
4889;SDS011;2459;42.268;23.112;2023-02-22T02:56:47;43.53;;;17.90;;
4889;SDS011;2459;42.268;23.112;2023-02-22T02:59:23;38.67;;;13.70;;
4889;SDS011;2459;42.268;23.112;2023-02-22T03:01:52;29.63;;;13.40;;
4889;SDS011;2459;42.268;23.112;2023-02-22T03:04:30;30.13;;;12.93;;
4889;SDS011;2459;42.268;23.112;2023-02-22T03:07:11;27.27;;;11.73;;
4889;SDS011;2459;42.268;23.112;2023-02-22T03:09:44;29.00;;;12.43;;
4889;SDS011;2459;42.268;23.112;2023-02-22T03:12:19;35.40;;;13.70;;
4889;SDS011;2459;42.268;23.112;2023-02-22T03:14:51;29.90;;;12.00;;
4889;SDS011;2459;42.268;23.112;2023-02-22T03:17:21;37.47;;;14.60;;
4889;SDS011;2459;42.268;23.112;2023-02-22T03:19:50;34.93;;;16.40;;
4889;SDS011;2459;42.268;23.112;2023-02-22T03:22:21;26.97;;;12.27;;
4889;SDS011;2459;42.268;23.112;2023-02-22T03:24:49;23.80;;;11.17;;
4889;SDS011;2459;42.268;23.112;2023-02-22T03:27:22;38.70;;;14.90;;
4889;SDS011;2459;42.268;23.112;2023-02-22T03:29:50;43.03;;;16.20;;
4889;SDS011;2459;42.268;23.112;2023-02-22T03:32:19;62.10;;;24.23;;
4889;SDS011;2459;42.268;23.112;2023-02-22T03:34:48;34.17;;;13.33;;
4889;SDS011;2459;42.268;23.112;2023-02-22T03:37:20;39.03;;;11.33;;
4889;SDS011;2459;42.268;23.112;2023-02-22T03:39:48;27.73;;;10.77;;
4889;SDS011;2459;42.268;23.112;2023-02-22T03:42:16;27.17;;;10.00;;
4889;SDS011;2459;42.268;23.112;2023-02-22T03:44:45;18.03;;;9.07;;
4889;SDS011;2459;42.268;23.112;2023-02-22T03:47:13;28.40;;;13.27;;
4889;SDS011;2459;42.268;23.112;2023-02-22T03:49:41;29.73;;;11.60;;
4889;SDS011;2459;42.268;23.112;2023-02-22T03:52:11;40.77;;;13.03;;
4889;SDS011;2459;42.268;23.112;2023-02-22T03:54:39;47.23;;;16.50;;
4889;SDS011;2459;42.268;23.112;2023-02-22T03:57:07;32.70;;;11.77;;
4889;SDS011;2459;42.268;23.112;2023-02-22T03:59:35;29.37;;;11.50;;
4889;SDS011;2459;42.268;23.112;2023-02-22T04:02:02;25.20;;;10.90;;
4889;SDS011;2459;42.268;23.112;2023-02-22T04:04:28;27.90;;;11.80;;
4889;SDS011;2459;42.268;23.112;2023-02-22T04:06:55;21.70;;;10.30;;
4889;SDS011;2459;42.268;23.112;2023-02-22T04:09:21;48.73;;;12.17;;
4889;SDS011;2459;42.268;23.112;2023-02-22T04:11:49;33.20;;;13.07;;
4889;SDS011;2459;42.268;23.112;2023-02-22T04:14:16;32.57;;;12.83;;
4889;SDS011;2459;42.268;23.112;2023-02-22T04:16:42;25.63;;;12.40;;
4889;SDS011;2459;42.268;23.112;2023-02-22T04:19:09;25.67;;;10.40;;
4889;SDS011;2459;42.268;23.112;2023-02-22T04:21:35;32.70;;;12.50;;
4889;SDS011;2459;42.268;23.112;2023-02-22T04:24:01;61.70;;;20.10;;
4889;SDS011;2459;42.268;23.112;2023-02-22T04:26:28;33.77;;;10.97;;
4889;SDS011;2459;42.268;23.112;2023-02-22T04:28:56;34.43;;;12.00;;
4889;SDS011;2459;42.268;23.112;2023-02-22T04:31:22;22.50;;;9.03;;
4889;SDS011;2459;42.268;23.112;2023-02-22T04:33:49;36.77;;;12.40;;
4889;SDS011;2459;42.268;23.112;2023-02-22T04:36:15;39.27;;;11.90;;
4889;SDS011;2459;42.268;23.112;2023-02-22T04:38:42;26.23;;;10.33;;
4889;SDS011;2459;42.268;23.112;2023-02-22T04:41:08;26.13;;;10.27;;
4889;SDS011;2459;42.268;23.112;2023-02-22T04:43:35;25.83;;;11.27;;
4889;SDS011;2459;42.268;23.112;2023-02-22T04:46:03;37.33;;;12.20;;
4889;SDS011;2459;42.268;23.112;2023-02-22T04:48:29;24.70;;;10.57;;
4889;SDS011;2459;42.268;23.112;2023-02-22T04:50:56;24.17;;;10.00;;
4889;SDS011;2459;42.268;23.112;2023-02-22T04:53:22;24.07;;;11.03;;
4889;SDS011;2459;42.268;23.112;2023-02-22T04:55:49;27.53;;;10.50;;
4889;SDS011;2459;42.268;23.112;2023-02-22T04:58:16;34.40;;;13.77;;
4889;SDS011;2459;42.268;23.112;2023-02-22T05:00:43;42.73;;;16.10;;
4889;SDS011;2459;42.268;23.112;2023-02-22T05:03:11;38.27;;;13.00;;
4889;SDS011;2459;42.268;23.112;2023-02-22T05:05:37;33.07;;;11.90;;
4889;SDS011;2459;42.268;23.112;2023-02-22T05:08:03;28.00;;;12.30;;
4889;SDS011;2459;42.268;23.112;2023-02-22T05:10:30;25.80;;;11.27;;
4889;SDS011;2459;42.268;23.112;2023-02-22T05:12:56;29.90;;;13.80;;
4889;SDS011;2459;42.268;23.112;2023-02-22T05:15:23;41.23;;;14.87;;
4889;SDS011;2459;42.268;23.112;2023-02-22T05:17:49;37.87;;;13.40;;
4889;SDS011;2459;42.268;23.112;2023-02-22T05:20:20;35.47;;;15.10;;
4889;SDS011;2459;42.268;23.112;2023-02-22T05:22:47;44.63;;;18.83;;
4889;SDS011;2459;42.268;23.112;2023-02-22T05:25:14;53.83;;;19.40;;
4889;SDS011;2459;42.268;23.112;2023-02-22T05:27:40;57.50;;;16.03;;
4889;SDS011;2459;42.268;23.112;2023-02-22T05:30:07;38.10;;;14.10;;
4889;SDS011;2459;42.268;23.112;2023-02-22T05:32:34;39.70;;;12.50;;
4889;SDS011;2459;42.268;23.112;2023-02-22T05:35:00;52.43;;;18.90;;
4889;SDS011;2459;42.268;23.112;2023-02-22T05:37:28;38.23;;;14.57;;
4889;SDS011;2459;42.268;23.112;2023-02-22T05:39:54;54.00;;;20.17;;
4889;SDS011;2459;42.268;23.112;2023-02-22T05:42:21;68.80;;;26.17;;
4889;SDS011;2459;42.268;23.112;2023-02-22T05:44:47;67.33;;;25.10;;
4889;SDS011;2459;42.268;23.112;2023-02-22T05:47:14;59.43;;;22.87;;
4889;SDS011;2459;42.268;23.112;2023-02-22T05:49:40;55.23;;;24.00;;
4889;SDS011;2459;42.268;23.112;2023-02-22T05:52:07;60.57;;;17.90;;
4889;SDS011;2459;42.268;23.112;2023-02-22T05:54:35;65.10;;;21.50;;
4889;SDS011;2459;42.268;23.112;2023-02-22T05:57:01;48.20;;;19.80;;
4889;SDS011;2459;42.268;23.112;2023-02-22T05:59:28;63.40;;;22.83;;
4889;SDS011;2459;42.268;23.112;2023-02-22T06:01:54;77.73;;;21.80;;
4889;SDS011;2459;42.268;23.112;2023-02-22T06:04:22;72.73;;;26.20;;
4889;SDS011;2459;42.268;23.112;2023-02-22T06:06:48;58.03;;;22.50;;
4889;SDS011;2459;42.268;23.112;2023-02-22T06:09:15;74.43;;;26.20;;
4889;SDS011;2459;42.268;23.112;2023-02-22T06:11:43;54.00;;;24.30;;
4889;SDS011;2459;42.268;23.112;2023-02-22T06:14:09;67.10;;;25.10;;
4889;SDS011;2459;42.268;23.112;2023-02-22T06:16:36;68.37;;;23.63;;
4889;SDS011;2459;42.268;23.112;2023-02-22T06:19:02;58.20;;;21.60;;
4889;SDS011;2459;42.268;23.112;2023-02-22T06:21:28;47.10;;;17.87;;
4889;SDS011;2459;42.268;23.112;2023-02-22T06:23:55;54.40;;;20.83;;
4889;SDS011;2459;42.268;23.112;2023-02-22T06:26:21;84.87;;;30.90;;
4889;SDS011;2459;42.268;23.112;2023-02-22T06:28:49;74.20;;;27.30;;
4889;SDS011;2459;42.268;23.112;2023-02-22T06:31:16;51.43;;;21.83;;
4889;SDS011;2459;42.268;23.112;2023-02-22T06:33:42;64.33;;;22.53;;
4889;SDS011;2459;42.268;23.112;2023-02-22T06:36:09;85.93;;;26.00;;
4889;SDS011;2459;42.268;23.112;2023-02-22T06:38:35;56.17;;;19.00;;
4889;SDS011;2459;42.268;23.112;2023-02-22T06:41:02;45.27;;;17.37;;
4889;SDS011;2459;42.268;23.112;2023-02-22T06:43:28;49.83;;;22.87;;
4889;SDS011;2459;42.268;23.112;2023-02-22T06:45:56;80.87;;;26.17;;
4889;SDS011;2459;42.268;23.112;2023-02-22T06:48:22;71.70;;;21.47;;
4889;SDS011;2459;42.268;23.112;2023-02-22T06:50:49;63.53;;;24.20;;
4889;SDS011;2459;42.268;23.112;2023-02-22T06:53:15;50.03;;;21.90;;
4889;SDS011;2459;42.268;23.112;2023-02-22T06:55:42;63.63;;;25.80;;
4889;SDS011;2459;42.268;23.112;2023-02-22T06:58:08;76.37;;;27.00;;
4889;SDS011;2459;42.268;23.112;2023-02-22T07:00:35;61.07;;;23.97;;
4889;SDS011;2459;42.268;23.112;2023-02-22T07:03:03;77.53;;;26.93;;
4889;SDS011;2459;42.268;23.112;2023-02-22T07:05:29;59.70;;;23.50;;
4889;SDS011;2459;42.268;23.112;2023-02-22T07:08:00;64.37;;;24.30;;
4889;SDS011;2459;42.268;23.112;2023-02-22T07:10:29;46.10;;;20.37;;
4889;SDS011;2459;42.268;23.112;2023-02-22T07:12:56;67.50;;;25.27;;
4889;SDS011;2459;42.268;23.112;2023-02-22T07:15:23;56.73;;;23.93;;
4889;SDS011;2459;42.268;23.112;2023-02-22T07:17:50;68.40;;;28.90;;
4889;SDS011;2459;42.268;23.112;2023-02-22T07:20:19;62.33;;;25.23;;
4889;SDS011;2459;42.268;23.112;2023-02-22T07:22:45;61.37;;;24.20;;
4889;SDS011;2459;42.268;23.112;2023-02-22T07:25:12;48.80;;;21.70;;
4889;SDS011;2459;42.268;23.112;2023-02-22T07:27:39;58.13;;;19.17;;
4889;SDS011;2459;42.268;23.112;2023-02-22T07:30:07;47.40;;;19.53;;
4889;SDS011;2459;42.268;23.112;2023-02-22T07:32:33;63.77;;;21.53;;
4889;SDS011;2459;42.268;23.112;2023-02-22T07:35:00;50.83;;;19.90;;
4889;SDS011;2459;42.268;23.112;2023-02-22T07:37:28;49.37;;;20.80;;
4889;SDS011;2459;42.268;23.112;2023-02-22T07:39:55;52.37;;;22.87;;
4889;SDS011;2459;42.268;23.112;2023-02-22T07:42:21;55.77;;;21.97;;
4889;SDS011;2459;42.268;23.112;2023-02-22T07:44:48;57.23;;;21.80;;
4889;SDS011;2459;42.268;23.112;2023-02-22T07:47:14;78.80;;;24.60;;
4889;SDS011;2459;42.268;23.112;2023-02-22T07:49:40;69.30;;;23.80;;
4889;SDS011;2459;42.268;23.112;2023-02-22T07:52:07;46.57;;;18.63;;
4889;SDS011;2459;42.268;23.112;2023-02-22T07:54:35;57.07;;;20.67;;
4889;SDS011;2459;42.268;23.112;2023-02-22T07:57:01;54.07;;;21.43;;
4889;SDS011;2459;42.268;23.112;2023-02-22T07:59:28;39.17;;;16.17;;
4889;SDS011;2459;42.268;23.112;2023-02-22T08:01:54;37.50;;;15.77;;
4889;SDS011;2459;42.268;23.112;2023-02-22T08:04:21;43.60;;;16.30;;
4889;SDS011;2459;42.268;23.112;2023-02-22T08:06:47;37.30;;;16.23;;
4889;SDS011;2459;42.268;23.112;2023-02-22T08:09:14;40.00;;;17.37;;
4889;SDS011;2459;42.268;23.112;2023-02-22T08:11:42;40.87;;;16.37;;
4889;SDS011;2459;42.268;23.112;2023-02-22T08:14:09;36.13;;;16.87;;
4889;SDS011;2459;42.268;23.112;2023-02-22T08:16:35;34.20;;;14.90;;
4889;SDS011;2459;42.268;23.112;2023-02-22T08:19:01;48.37;;;15.47;;
4889;SDS011;2459;42.268;23.112;2023-02-22T08:21:28;28.27;;;13.80;;
4889;SDS011;2459;42.268;23.112;2023-02-22T08:23:55;23.00;;;13.17;;
4889;SDS011;2459;42.268;23.112;2023-02-22T08:26:21;37.80;;;14.60;;
4889;SDS011;2459;42.268;23.112;2023-02-22T08:28:50;36.53;;;13.30;;
4889;SDS011;2459;42.268;23.112;2023-02-22T08:31:17;30.53;;;12.93;;
4889;SDS011;2459;42.268;23.112;2023-02-22T08:33:45;34.07;;;12.43;;
4889;SDS011;2459;42.268;23.112;2023-02-22T08:36:12;51.47;;;14.40;;
4889;SDS011;2459;42.268;23.112;2023-02-22T08:38:38;27.30;;;11.90;;
4889;SDS011;2459;42.268;23.112;2023-02-22T08:41:05;27.33;;;12.73;;
4889;SDS011;2459;42.268;23.112;2023-02-22T08:43:31;27.07;;;13.37;;
4889;SDS011;2459;42.268;23.112;2023-02-22T08:45:59;28.37;;;10.40;;
4889;SDS011;2459;42.268;23.112;2023-02-22T08:48:26;25.47;;;10.47;;
4889;SDS011;2459;42.268;23.112;2023-02-22T08:50:52;22.50;;;10.93;;
4889;SDS011;2459;42.268;23.112;2023-02-22T08:53:19;15.93;;;8.33;;
4889;SDS011;2459;42.268;23.112;2023-02-22T08:55:45;16.37;;;7.60;;
4889;SDS011;2459;42.268;23.112;2023-02-22T08:58:12;17.67;;;7.90;;
4889;SDS011;2459;42.268;23.112;2023-02-22T09:00:39;27.00;;;7.50;;
4889;SDS011;2459;42.268;23.112;2023-02-22T09:03:08;28.83;;;8.87;;
4889;SDS011;2459;42.268;23.112;2023-02-22T09:05:35;13.90;;;7.00;;
4889;SDS011;2459;42.268;23.112;2023-02-22T09:08:02;11.10;;;5.83;;
4889;SDS011;2459;42.268;23.112;2023-02-22T09:10:30;10.07;;;5.80;;
4889;SDS011;2459;42.268;23.112;2023-02-22T09:12:57;11.00;;;6.20;;
4889;SDS011;2459;42.268;23.112;2023-02-22T09:15:25;20.23;;;6.30;;
4889;SDS011;2459;42.268;23.112;2023-02-22T09:17:52;9.37;;;5.27;;
4889;SDS011;2459;42.268;23.112;2023-02-22T09:20:21;10.30;;;5.63;;
4889;SDS011;2459;42.268;23.112;2023-02-22T09:22:48;8.07;;;5.00;;
4889;SDS011;2459;42.268;23.112;2023-02-22T09:25:15;15.85;;;5.75;;
4889;SDS011;2459;42.268;23.112;2023-02-22T09:27:41;13.57;;;5.90;;
4889;SDS011;2459;42.268;23.112;2023-02-22T09:30:11;16.20;;;5.63;;
4889;SDS011;2459;42.268;23.112;2023-02-22T09:32:41;8.70;;;5.00;;
4889;SDS011;2459;42.268;23.112;2023-02-22T09:35:07;11.55;;;5.30;;
4889;SDS011;2459;42.268;23.112;2023-02-22T09:43:29;19.58;;;4.80;;
4889;SDS011;2459;42.268;23.112;2023-02-22T09:46:01;6.28;;;4.35;;
4889;SDS011;2459;42.268;23.112;2023-02-22T09:48:30;8.18;;;4.28;;
4889;SDS011;2459;42.268;23.112;2023-02-22T09:50:58;12.05;;;5.35;;
4889;SDS011;2459;42.268;23.112;2023-02-22T09:53:27;8.35;;;4.93;;
4889;SDS011;2459;42.268;23.112;2023-02-22T09:55:56;8.27;;;4.88;;
4889;SDS011;2459;42.268;23.112;2023-02-22T09:58:25;10.15;;;5.10;;
4889;SDS011;2459;42.268;23.112;2023-02-22T10:00:55;15.70;;;4.75;;
4889;SDS011;2459;42.268;23.112;2023-02-22T10:03:24;7.47;;;4.60;;
4889;SDS011;2459;42.268;23.112;2023-02-22T10:05:54;9.18;;;4.70;;
4889;SDS011;2459;42.268;23.112;2023-02-22T10:08:25;8.25;;;4.90;;
4889;SDS011;2459;42.268;23.112;2023-02-22T10:10:55;18.48;;;5.03;;
4889;SDS011;2459;42.268;23.112;2023-02-22T10:13:27;11.70;;;3.50;;
4889;SDS011;2459;42.268;23.112;2023-02-22T10:15:56;9.70;;;4.10;;
4889;SDS011;2459;42.268;23.112;2023-02-22T10:18:33;8.43;;;4.20;;
4889;SDS011;2459;42.268;23.112;2023-02-22T10:21:06;9.07;;;3.20;;
4889;SDS011;2459;42.268;23.112;2023-02-22T10:23:40;8.30;;;3.90;;
4889;SDS011;2459;42.268;23.112;2023-02-22T10:26:14;10.10;;;4.13;;
4889;SDS011;2459;42.268;23.112;2023-02-22T10:28:42;4.00;;;2.30;;
4889;SDS011;2459;42.268;23.112;2023-02-22T10:31:15;5.53;;;2.40;;
4889;SDS011;2459;42.268;23.112;2023-02-22T10:33:46;5.00;;;2.15;;
4889;SDS011;2459;42.268;23.112;2023-02-22T10:36:14;6.40;;;3.30;;
4889;SDS011;2459;42.268;23.112;2023-02-22T10:38:41;9.88;;;2.53;;
4889;SDS011;2459;42.268;23.112;2023-02-22T10:41:17;4.75;;;3.08;;
4889;SDS011;2459;42.268;23.112;2023-02-22T10:43:44;4.60;;;2.08;;
4889;SDS011;2459;42.268;23.112;2023-02-22T10:46:12;4.18;;;1.73;;
4889;SDS011;2459;42.268;23.112;2023-02-22T10:48:42;2.35;;;1.77;;
4889;SDS011;2459;42.268;23.112;2023-02-22T10:51:10;11.52;;;2.53;;
4889;SDS011;2459;42.268;23.112;2023-02-22T10:53:37;1.73;;;1.35;;
4889;SDS011;2459;42.268;23.112;2023-02-22T10:56:05;2.65;;;1.55;;
4889;SDS011;2459;42.268;23.112;2023-02-22T10:58:38;2.55;;;1.27;;
4889;SDS011;2459;42.268;23.112;2023-02-22T11:01:15;14.32;;;2.63;;
4889;SDS011;2459;42.268;23.112;2023-02-22T11:03:43;3.30;;;1.55;;
4889;SDS011;2459;42.268;23.112;2023-02-22T11:06:17;3.17;;;1.90;;
4889;SDS011;2459;42.268;23.112;2023-02-22T11:08:43;15.57;;;3.90;;
4889;SDS011;2459;42.268;23.112;2023-02-22T11:11:19;4.82;;;2.22;;
4889;SDS011;2459;42.268;23.112;2023-02-22T11:13:49;7.53;;;3.03;;
4889;SDS011;2459;42.268;23.112;2023-02-22T11:16:24;7.45;;;1.90;;
4889;SDS011;2459;42.268;23.112;2023-02-22T11:18:57;7.22;;;2.17;;
4889;SDS011;2459;42.268;23.112;2023-02-22T11:21:24;7.97;;;2.35;;
4889;SDS011;2459;42.268;23.112;2023-02-22T11:23:59;2.20;;;2.00;;
4889;SDS011;2459;42.268;23.112;2023-02-22T11:26:26;12.27;;;4.10;;
4889;SDS011;2459;42.268;23.112;2023-02-22T11:28:53;3.17;;;2.20;;
4889;SDS011;2459;42.268;23.112;2023-02-22T11:31:21;10.65;;;3.10;;
4889;SDS011;2459;42.268;23.112;2023-02-22T11:33:50;3.63;;;2.45;;
4889;SDS011;2459;42.268;23.112;2023-02-22T11:36:32;2.80;;;2.13;;
4889;SDS011;2459;42.268;23.112;2023-02-22T11:39:01;1.50;;;1.40;;
4889;SDS011;2459;42.268;23.112;2023-02-22T11:41:45;1.98;;;1.83;;
4889;SDS011;2459;42.268;23.112;2023-02-22T11:44:19;2.45;;;1.92;;
4889;SDS011;2459;42.268;23.112;2023-02-22T11:46:47;2.45;;;2.25;;
4889;SDS011;2459;42.268;23.112;2023-02-22T11:49:14;3.15;;;2.30;;
4889;SDS011;2459;42.268;23.112;2023-02-22T11:51:49;9.00;;;4.05;;
4889;SDS011;2459;42.268;23.112;2023-02-22T11:54:22;213.77;;;12.25;;
4889;SDS011;2459;42.268;23.112;2023-02-22T11:56:56;18.85;;;3.28;;
4889;SDS011;2459;42.268;23.112;2023-02-22T11:59:29;11.63;;;4.10;;
4889;SDS011;2459;42.268;23.112;2023-02-22T12:02:03;4.13;;;2.90;;
4889;SDS011;2459;42.268;23.112;2023-02-22T12:04:34;3.33;;;2.85;;
4889;SDS011;2459;42.268;23.112;2023-02-22T12:07:15;6.88;;;3.28;;
4889;SDS011;2459;42.268;23.112;2023-02-22T12:09:43;5.32;;;2.95;;
4889;SDS011;2459;42.268;23.112;2023-02-22T12:12:15;7.57;;;3.47;;
4889;SDS011;2459;42.268;23.112;2023-02-22T12:14:43;5.45;;;2.90;;
4889;SDS011;2459;42.268;23.112;2023-02-22T12:17:17;7.70;;;3.67;;
4889;SDS011;2459;42.268;23.112;2023-02-22T12:19:45;8.02;;;3.45;;
4889;SDS011;2459;42.268;23.112;2023-02-22T12:22:14;8.00;;;3.05;;
4889;SDS011;2459;42.268;23.112;2023-02-22T12:24:44;5.10;;;3.15;;
4889;SDS011;2459;42.268;23.112;2023-02-22T12:27:13;5.05;;;4.00;;
4889;SDS011;2459;42.268;23.112;2023-02-22T12:29:42;10.73;;;3.53;;
4889;SDS011;2459;42.268;23.112;2023-02-22T12:32:12;43.63;;;5.47;;
4889;SDS011;2459;42.268;23.112;2023-02-22T12:34:41;7.07;;;3.22;;
4889;SDS011;2459;42.268;23.112;2023-02-22T12:37:12;3.28;;;2.92;;
4889;SDS011;2459;42.268;23.112;2023-02-22T12:39:44;2.85;;;2.50;;
4889;SDS011;2459;42.268;23.112;2023-02-22T12:42:16;7.10;;;4.47;;
4889;SDS011;2459;42.268;23.112;2023-02-22T12:44:44;6.45;;;3.38;;
4889;SDS011;2459;42.268;23.112;2023-02-22T12:47:13;6.07;;;3.35;;
4889;SDS011;2459;42.268;23.112;2023-02-22T12:49:42;5.05;;;2.28;;
4889;SDS011;2459;42.268;23.112;2023-02-22T12:52:09;4.35;;;2.85;;
4889;SDS011;2459;42.268;23.112;2023-02-22T12:54:41;13.30;;;3.15;;
4889;SDS011;2459;42.268;23.112;2023-02-22T12:57:13;3.65;;;3.22;;
4889;SDS011;2459;42.268;23.112;2023-02-22T12:59:44;10.52;;;2.80;;
4889;SDS011;2459;42.268;23.112;2023-02-22T13:02:13;3.72;;;2.30;;
4889;SDS011;2459;42.268;23.112;2023-02-22T13:04:41;6.30;;;2.70;;
4889;SDS011;2459;42.268;23.112;2023-02-22T13:07:09;9.13;;;2.42;;
4889;SDS011;2459;42.268;23.112;2023-02-22T13:09:46;5.75;;;2.20;;
4889;SDS011;2459;42.268;23.112;2023-02-22T13:12:18;4.32;;;2.50;;
4889;SDS011;2459;42.268;23.112;2023-02-22T13:14:49;3.60;;;2.40;;
4889;SDS011;2459;42.268;23.112;2023-02-22T13:17:20;3.33;;;2.53;;
4889;SDS011;2459;42.268;23.112;2023-02-22T13:19:49;3.53;;;2.42;;
4889;SDS011;2459;42.268;23.112;2023-02-22T13:22:20;3.67;;;2.70;;
4889;SDS011;2459;42.268;23.112;2023-02-22T13:24:53;6.93;;;2.50;;
4889;SDS011;2459;42.268;23.112;2023-02-22T13:27:25;8.98;;;2.70;;
4889;SDS011;2459;42.268;23.112;2023-02-22T13:29:53;4.70;;;2.28;;
4889;SDS011;2459;42.268;23.112;2023-02-22T13:32:25;11.25;;;3.22;;
4889;SDS011;2459;42.268;23.112;2023-02-22T13:37:43;1.80;;;1.70;;
4889;SDS011;2459;42.268;23.112;2023-02-22T13:40:28;4.35;;;2.60;;
4889;SDS011;2459;42.268;23.112;2023-02-22T13:43:06;3.70;;;2.95;;
4889;SDS011;2459;42.268;23.112;2023-02-22T13:45:41;5.15;;;2.72;;
4889;SDS011;2459;42.268;23.112;2023-02-22T13:53:41;9.07;;;3.50;;
4889;SDS011;2459;42.268;23.112;2023-02-22T13:59:03;6.60;;;2.58;;
4889;SDS011;2459;42.268;23.112;2023-02-22T14:01:38;8.05;;;3.60;;
4889;SDS011;2459;42.268;23.112;2023-02-22T14:04:21;16.63;;;3.78;;
4889;SDS011;2459;42.268;23.112;2023-02-22T14:06:48;4.95;;;2.92;;
4889;SDS011;2459;42.268;23.112;2023-02-22T14:09:15;5.25;;;3.03;;
4889;SDS011;2459;42.268;23.112;2023-02-22T14:11:44;4.03;;;2.90;;
4889;SDS011;2459;42.268;23.112;2023-02-22T14:14:15;6.33;;;2.70;;
4889;SDS011;2459;42.268;23.112;2023-02-22T14:16:43;9.93;;;2.27;;
4889;SDS011;2459;42.268;23.112;2023-02-22T14:19:13;8.27;;;3.73;;
4889;SDS011;2459;42.268;23.112;2023-02-22T14:21:53;7.93;;;2.90;;
4889;SDS011;2459;42.268;23.112;2023-02-22T14:24:20;8.70;;;3.60;;
4889;SDS011;2459;42.268;23.112;2023-02-22T14:26:57;7.10;;;3.40;;
4889;SDS011;2459;42.268;23.112;2023-02-22T14:29:25;8.20;;;3.50;;
4889;SDS011;2459;42.268;23.112;2023-02-22T14:31:55;8.83;;;4.17;;
4889;SDS011;2459;42.268;23.112;2023-02-22T14:34:37;4.70;;;3.70;;
4889;SDS011;2459;42.268;23.112;2023-02-22T14:37:05;9.03;;;4.30;;
4889;SDS011;2459;42.268;23.112;2023-02-22T14:39:33;6.13;;;3.47;;
4889;SDS011;2459;42.268;23.112;2023-02-22T14:42:03;5.77;;;3.87;;
4889;SDS011;2459;42.268;23.112;2023-02-22T14:44:33;19.00;;;6.37;;
4889;SDS011;2459;42.268;23.112;2023-02-22T14:47:02;13.50;;;5.60;;
4889;SDS011;2459;42.268;23.112;2023-02-22T14:49:31;14.90;;;4.40;;
4889;SDS011;2459;42.268;23.112;2023-02-22T14:52:01;8.90;;;4.23;;
4889;SDS011;2459;42.268;23.112;2023-02-22T14:54:30;3.97;;;3.37;;
4889;SDS011;2459;42.268;23.112;2023-02-22T14:57:01;15.50;;;7.00;;
4889;SDS011;2459;42.268;23.112;2023-02-22T15:02:47;6.80;;;3.33;;
4889;SDS011;2459;42.268;23.112;2023-02-22T15:05:14;10.03;;;3.03;;
4889;SDS011;2459;42.268;23.112;2023-02-22T15:07:50;6.23;;;3.83;;
4889;SDS011;2459;42.268;23.112;2023-02-22T15:10:19;9.73;;;2.90;;
4889;SDS011;2459;42.268;23.112;2023-02-22T15:12:52;6.83;;;3.90;;
4889;SDS011;2459;42.268;23.112;2023-02-22T15:15:32;6.40;;;3.77;;